Estación Meteorológica Peña el Pijo (Robertgarden) [ 11/20/17 01:24:54 CET ]

Fecha Hora Presion(HPa) Temp (°C) Humedad % Rocio (°C) Viento ( m/s) Direccion Lluvia 1Hora(mm) Lluvia 24H(mm) LLuvia Total(mm)
2017-Nov-14 01:01:39 1007.200 -0.6 68 -5.8         1468.01
2017-Nov-14 02:02:04 1006.900 -0.8 69 -5.8         1468.01
2017-Nov-14 03:06:15 1007.000 -1.9 70 -6.6         1468.01
2017-Nov-14 04:01:48 1006.500 -1.5 71 -6.1         1468.01
2017-Nov-14 05:01:56 1006.500 -2.7 72 -7.1         1468.01
2017-Nov-14 06:01:44 1006.700 -3.1 73 -7.3         1468.01
2017-Nov-14 07:01:41 1006.900 -3.1 74 -7.1         1468.01
2017-Nov-14 08:01:50 1007.000 -3.5 74 -7.5         1468.01
2017-Nov-14 09:01:46 1007.800 -1.9 76 -5.6         1468.01
2017-Nov-14 10:01:57 1007.200 6.4 56 -1.8         1468.01
2017-Nov-14 11:01:39 1007.200 11.6 35 -3.5         1468.01
2017-Nov-14 12:01:38 1007.100 12.4 30 -4.7 2.4 SSW     1468.01
2017-Nov-14 13:01:52 1006.500 14.4 26 -5.1         1468.01
2017-Nov-14 14:01:51 1006.000 15.9 22 -5.9         1468.01
2017-Nov-14 15:01:44 1005.900 15.8 19 -7.9         1468.01
2017-Nov-14 16:01:35 1006.200 15.3 22 -6.5         1468.01
2017-Nov-14 17:01:50 1006.400 12.5 23 -8.3         1468.01
2017-Nov-14 18:01:29 1007.100 8.9 28 -8.7         1468.01
2017-Nov-14 19:01:35 1007.800 4.6 38 -8.6         1468.01
2017-Nov-14 20:01:23 1008.500 1.9 44 -9.1         1468.01
2017-Nov-14 21:01:42 1009.000 0.2 49 -9.3         1468.01
2017-Nov-14 22:01:29 1009.600 -1.1 53 -9.5         1468.01
2017-Nov-14 23:01:50 1010.100 -1.7 55 -9.6         1468.01

Temperatura Máxima:15°    Temperatura Mínima:-3°
Presión Máxima:1010.100 Hpa    Presión Mínima:1005.900 Hpa


Volver